Time;durP1;ratioP1;P1;durP2;ratioP2;P2;SDS_P1;SDS_P2;PMS_P1;PMS_P2;Temp;Humidity;BMP_temperature;BMP_pressure;BME280_temperature;BME280_humidity;BME280_pressure;Samples;Min_cycle;Max_cycle;Signal;HPM_P1;HPM_P2
2021/12/08 00:00:44;;;;;;;1.15;0.73;;;16.00;75.80;;;;;;5034239;28;20045;-46
2021/12/08 00:03:12;;;;;;;1.98;0.63;;;16.00;75.80;;;;;;5033870;28;20420;-46
2021/12/08 00:05:39;;;;;;;3.03;0.77;;;16.00;74.80;;;;;;5034105;28;20025;-45
2021/12/08 00:08:06;;;;;;;1.55;0.85;;;16.00;75.30;;;;;;5034010;28;20033;-46
2021/12/08 00:13:02;;;;;;;3.38;0.80;;;15.90;76.10;;;;;;5033630;28;20048;-46
2021/12/08 00:15:36;;;;;;;1.25;0.60;;;15.90;72.80;;;;;;5033978;28;20399;-46
2021/12/08 00:18:04;;;;;;;0.85;0.60;;;16.20;76.00;;;;;;5033532;28;20033;-45
2021/12/08 00:20:32;;;;;;;2.47;0.70;;;;;;;;;;5033783;28;20076;-47
2021/12/08 00:22:58;;;;;;;1.17;0.90;;;;;;;;;;5033501;28;20380;-45
2021/12/08 00:25:24;;;;;;;1.65;0.60;;;;;;;;;;5033697;28;20108;-48
2021/12/08 00:27:50;;;;;;;0.70;0.50;;;;;;;;;;5033350;28;20088;-46
2021/12/08 00:30:16;;;;;;;1.00;0.50;;;16.00;75.90;;;;;;5033410;28;20030;-45
2021/12/08 00:32:44;;;;;;;1.88;0.73;;;15.80;76.30;;;;;;5033522;28;20026;-47
2021/12/08 00:35:10;;;;;;;1.10;0.60;;;;;;;;;;5033541;28;20072;-45
2021/12/08 00:37:36;;;;;;;0.80;0.65;;;;;;;;;;5033119;28;20030;-48
2021/12/08 00:40:02;;;;;;;1.23;0.70;;;;;;;;;;5033451;28;20122;-53
2021/12/08 00:42:28;;;;;;;0.88;0.80;;;;;;;;;;5033123;28;20033;-55
2021/12/08 00:44:54;;;;;;;1.00;0.70;;;;;;;;;;5033416;28;20369;-55
2021/12/08 00:47:20;;;;;;;1.13;0.60;;;;;;;;;;5032975;28;20037;-53
2021/12/08 00:49:47;;;;;;;1.10;0.80;;;;;;;;;;5033193;28;20080;-52
2021/12/08 00:52:16;;;;;;;1.23;0.60;;;15.70;75.00;;;;;;5033161;28;20349;-53
2021/12/08 00:54:42;;;;;;;0.47;0.40;;;;;;;;;;5032845;28;20059;-54
2021/12/08 00:57:08;;;;;;;1.83;0.80;;;;;;;;;;5033248;28;20373;-50
2021/12/08 00:59:34;;;;;;;1.63;0.55;;;;;;;;;;5032095;28;20056;-53
2021/12/08 01:02:02;;;;;;;3.50;0.85;;;;;;;;;;5032513;28;20037;-53
2021/12/08 01:04:35;;;;;;;1.17;0.75;;;17.30;71.40;;;;;;5032829;28;20388;-52
2021/12/08 01:07:02;;;;;;;1.15;0.80;;;15.70;76.50;;;;;;5032941;28;20449;-51
2021/12/08 01:09:29;;;;;;;1.13;0.68;;;;;;;;;;5032897;28;20396;-54
2021/12/08 01:11:57;;;;;;;1.73;0.60;;;;;;;;;;5032779;28;20029;-51
2021/12/08 01:14:23;;;;;;;0.95;0.70;;;;;;;;;;5032756;28;20029;-54
2021/12/08 01:16:51;;;;;;;0.63;0.50;;;;;;;;;;5032847;28;20022;-55
2021/12/08 01:19:17;;;;;;;0.80;0.70;;;;;;;;;;5032636;28;20104;-55
2021/12/08 01:21:43;;;;;;;0.88;0.60;;;;;;;;;;5032438;28;20588;-52
2021/12/08 01:24:10;;;;;;;0.90;0.57;;;;;;;;;;5032626;28;20117;-53
2021/12/08 01:26:36;;;;;;;1.95;0.60;;;;;;;;;;5032200;28;20062;-55
2021/12/08 01:29:02;;;;;;;0.95;0.55;;;;;;;;;;5032556;28;20049;-56
2021/12/08 01:31:28;;;;;;;0.98;0.60;;;;;;;;;;5032505;28;20022;-55
2021/12/08 01:33:55;;;;;;;2.13;0.98;;;;;;;;;;5032272;28;20507;-45
2021/12/08 01:36:21;;;;;;;0.85;0.55;;;;;;;;;;5032399;28;20517;-48
2021/12/08 01:38:47;;;;;;;0.90;0.60;;;;;;;;;;5032447;28;20026;-47
2021/12/08 01:41:14;;;;;;;1.27;0.68;;;15.60;76.80;;;;;;5032055;28;20468;-47
2021/12/08 01:45:56;;;;;;;1.35;0.47;;;;;;;;;;5032361;28;20387;-46
2021/12/08 01:46:30;;;;;;;0.73;0.50;;;15.50;76.20;;;;;;5032055;28;20040;-47
2021/12/08 01:48:56;;;;;;;0.80;0.50;;;15.60;74.80;;;;;;5032245;28;20038;-46
2021/12/08 01:51:25;;;;;;;0.73;0.40;;;;;;;;;;5032197;28;20029;-48
2021/12/08 01:53:53;;;;;;;1.25;0.70;;;15.60;76.80;;;;;;5032259;28;20395;-54
2021/12/08 01:56:21;;;;;;;1.00;0.70;;;15.60;76.90;;;;;;5032210;28;20025;-54
2021/12/08 01:58:47;;;;;;;1.48;0.40;;;;;;;;;;5032195;28;20471;-54
2021/12/08 02:01:16;;;;;;;1.73;0.50;;;15.50;76.90;;;;;;5031772;28;20028;-55
2021/12/08 02:03:43;;;;;;;0.65;0.50;;;15.40;76.80;;;;;;5031605;28;20091;-51
2021/12/08 02:06:11;;;;;;;1.85;0.57;;;15.40;76.90;;;;;;5032020;28;20423;-54
2021/12/08 02:08:37;;;;;;;0.63;0.40;;;;;;;;;;5031979;28;20432;-53
2021/12/08 02:11:04;;;;;;;0.95;0.52;;;15.50;76.60;;;;;;5036145;28;20025;-49
2021/12/08 02:13:37;;;;;;;0.77;0.50;;;15.50;76.90;;;;;;5038366;28;20033;-50
2021/12/08 02:16:06;;;;;;;1.15;0.60;;;15.50;76.70;;;;;;5038571;28;20060;-48
2021/12/08 02:18:32;;;;;;;1.80;0.60;;;;;;;;;;5038518;28;20349;-51
2021/12/08 02:20:59;;;;;;;2.92;0.63;;;15.40;76.70;;;;;;5038313;28;20040;-48
2021/12/08 02:23:25;;;;;;;1.52;0.63;;;;;;;;;;5038126;28;20112;-51
2021/12/08 02:25:52;;;;;;;0.75;0.40;;;;;;;;;;5038450;28;20447;-50
2021/12/08 02:28:18;;;;;;;2.17;0.50;;;;;;;;;;5038418;28;20063;-48
2021/12/08 02:30:49;;;;;;;1.30;0.43;;;;;;;;;;5038615;28;20156;-51
2021/12/08 02:47:13;;;;;;;1.58;0.68;;;15.40;76.90;;;;;;5038315;28;20064;-48
2021/12/08 02:49:39;;;;;;;0.95;0.60;;;;;;;;;;5038132;28;20447;-46
2021/12/08 02:52:12;;;;;;;2.08;0.63;;;15.40;71.10;;;;;;5037978;28;20072;-45
2021/12/08 02:54:44;;;;;;;4.57;0.60;;;15.40;76.90;;;;;;5038217;28;20053;-48
2021/12/08 02:57:11;;;;;;;2.63;0.75;;;15.30;76.80;;;;;;5037901;28;20515;-49
2021/12/08 02:59:38;;;;;;;0.95;0.63;;;15.40;77.00;;;;;;5038117;28;20376;-46
2021/12/08 03:02:05;;;;;;;2.17;0.70;;;15.40;73.90;;;;;;5037668;28;20072;-46
2021/12/08 03:04:31;;;;;;;1.10;0.70;;;;;;;;;;5037859;28;20055;-46
2021/12/08 03:06:57;;;;;;;0.95;0.40;;;;;;;;;;5037982;28;20021;-47
2021/12/08 03:09:23;;;;;;;1.55;0.63;;;;;;;;;;5037833;28;20034;-48
2021/12/08 03:11:51;;;;;;;1.10;0.60;;;15.30;76.90;;;;;;5038131;28;20095;-46
2021/12/08 03:14:18;;;;;;;1.15;0.60;;;15.30;76.80;;;;;;5037871;28;20032;-45
2021/12/08 03:16:48;;;;;;;1.00;0.60;;;15.30;76.80;;;;;;5037793;28;20029;-46
2021/12/08 03:19:15;;;;;;;0.82;0.50;;;15.20;75.60;;;;;;5037782;28;20108;-47
2021/12/08 03:21:41;;;;;;;2.50;0.50;;;;;;;;;;5036272;28;20028;-46
2021/12/08 03:24:46;;;;;;;0.80;0.47;;;15.20;76.90;;;;;;5034616;28;20037;-55
2021/12/08 03:27:11;;;;;;;4.13;0.70;;;15.30;73.80;;;;;;5032522;28;20037;-52
2021/12/08 03:32:15;;;;;;;2.42;0.60;;;15.30;76.80;;;;;;5034596;28;20025;-54
2021/12/08 03:34:52;;;;;;;1.52;0.70;;;15.20;76.80;;;;;;5034434;28;20512;-55
2021/12/08 03:37:23;;;;;;;1.15;0.60;;;15.30;77.10;;;;;;5034568;28;20026;-51
2021/12/08 03:39:50;;;;;;;2.22;0.68;;;15.30;75.20;;;;;;5034516;28;20025;-53
2021/12/08 03:42:18;;;;;;;1.40;0.50;;;15.20;74.20;;;;;;5034646;28;20104;-54
2021/12/08 03:44:44;;;;;;;1.55;1.00;;;;;;;;;;5034455;28;20025;-48
2021/12/08 03:47:16;;;;;;;1.30;0.60;;;;;;;;;;5034525;28;20032;-46
2021/12/08 03:49:44;;;;;;;0.98;0.50;;;15.10;77.10;;;;;;5034479;28;20045;-45
2021/12/08 03:52:10;;;;;;;0.75;0.50;;;;;;;;;;5034153;28;20033;-46
2021/12/08 03:54:37;;;;;;;2.15;0.52;;;;;;;;;;5034324;28;20076;-46
2021/12/08 03:57:04;;;;;;;0.88;0.57;;;15.20;77.00;;;;;;5034248;28;20045;-47
2021/12/08 03:59:30;;;;;;;2.13;1.00;;;;;;;;;;5034229;28;20026;-47
2021/12/08 04:01:56;;;;;;;3.88;0.70;;;;;;;;;;5033688;28;20455;-46
2021/12/08 04:04:26;;;;;;;1.98;0.98;;;15.10;74.40;;;;;;5034207;28;20041;-47
2021/12/08 04:06:53;;;;;;;1.35;0.50;;;;;;;;;;5033835;28;20396;-46
2021/12/08 04:09:33;;;;;;;1.67;0.90;;;15.10;77.50;;;;;;5033761;28;20488;-47
2021/12/08 04:11:59;;;;;;;2.35;0.75;;;15.10;74.40;;;;;;5033976;28;20024;-47
2021/12/08 04:14:30;;;;;;;1.88;0.70;;;15.10;77.20;;;;;;5033670;28;20438;-46
2021/12/08 04:17:01;;;;;;;1.23;0.40;;;15.10;71.50;;;;;;5033674;28;20021;-47
2021/12/08 04:19:28;;;;;;;2.40;0.90;;;;;;;;;;5033604;28;20033;-54
2021/12/08 04:21:57;;;;;;;0.80;0.60;;;15.20;77.50;;;;;;5033839;28;20025;-46
2021/12/08 04:24:23;;;;;;;2.95;0.70;;;;;;;;;;5033507;28;20036;-46
2021/12/08 04:27:02;;;;;;;2.22;0.55;;;15.00;77.20;;;;;;5033589;28;20384;-47
2021/12/08 04:29:35;;;;;;;1.23;0.40;;;15.10;77.20;;;;;;5033240;28;20029;-47
2021/12/08 04:32:02;;;;;;;2.22;1.05;;;15.10;75.00;;;;;;5033643;28;20030;-46
2021/12/08 04:34:33;;;;;;;1.33;0.50;;;15.10;77.30;;;;;;5032136;28;20029;-46
2021/12/08 04:37:03;;;;;;;0.98;0.40;;;15.00;77.20;;;;;;5033583;28;20048;-46
2021/12/08 04:39:54;;;;;;;1.92;0.75;;;15.10;77.50;;;;;;5033402;28;20026;-45
2021/12/08 04:42:31;;;;;;;1.27;0.63;;;;;;;;;;5033258;28;20033;-46
2021/12/08 04:45:05;;;;;;;2.80;0.75;;;;;;;;;;5033327;28;20034;-46
2021/12/08 04:47:35;;;;;;;0.85;0.73;;;;;;;;;;5033358;28;20451;-46
2021/12/08 04:53:02;;;;;;;1.55;0.68;;;;;;;;;;5033386;28;20034;-46
2021/12/08 05:04:02;;;;;;;6.32;1.00;;;15.30;77.60;;;;;;5032639;28;20115;-47
2021/12/08 05:09:24;;;;;;;1.25;0.70;;;15.00;77.50;;;;;;5032937;28;20145;-46
2021/12/08 05:12:01;;;;;;;1.73;0.70;;;14.90;77.50;;;;;;5032602;28;20480;-46
2021/12/08 05:14:32;;;;;;;2.67;0.73;;;14.90;77.50;;;;;;5032609;28;20018;-46
2021/12/08 05:17:03;;;;;;;1.23;0.47;;;14.70;77.40;;;;;;5032619;28;20033;-46
2021/12/08 05:19:31;;;;;;;1.80;0.65;;;14.90;77.70;;;;;;5032396;28;20136;-46
2021/12/08 05:22:13;;;;;;;1.83;0.63;;;15.00;77.60;;;;;;5032800;28;20090;-45
2021/12/08 05:24:45;;;;;;;1.30;0.65;;;15.00;77.40;;;;;;5032427;28;20031;-46
2021/12/08 05:27:18;;;;;;;1.35;0.70;;;14.90;77.40;;;;;;5032264;28;20026;-45
2021/12/08 05:29:52;;;;;;;2.35;0.60;;;15.00;71.60;;;;;;5032260;28;20037;-46
2021/12/08 05:32:19;;;;;;;1.88;0.93;;;15.00;77.40;;;;;;5032310;28;20029;-46
2021/12/08 05:34:45;;;;;;;2.15;0.65;;;;;;;;;;5032519;28;20036;-46
2021/12/08 05:37:15;;;;;;;1.13;0.50;;;15.00;77.40;;;;;;5032177;28;20048;-46
2021/12/08 05:39:41;;;;;;;2.50;0.60;;;15.00;76.30;;;;;;5032244;28;20076;-46
2021/12/08 05:42:11;;;;;;;2.10;0.65;;;15.10;77.40;;;;;;5032023;28;20030;-46
2021/12/08 05:44:37;;;;;;;1.55;0.52;;;;;;;;;;5031983;28;20025;-46
2021/12/08 05:47:09;;;;;;;1.88;0.50;;;15.10;77.40;;;;;;5032003;28;20037;-45
2021/12/08 05:49:35;;;;;;;1.58;0.50;;;;;;;;;;5031977;28;20387;-46
2021/12/08 05:52:01;;;;;;;2.30;0.60;;;;;;;;;;5032092;28;20026;-46
2021/12/08 05:54:33;;;;;;;3.03;0.60;;;15.20;71.80;;;;;;5032028;28;20192;-47
2021/12/08 05:57:20;;;;;;;3.38;0.60;;;15.10;71.80;;;;;;5032337;28;20029;-46
2021/12/08 05:59:48;;;;;;;2.05;0.60;;;15.00;77.50;;;;;;5031736;28;20435;-51
2021/12/08 06:02:31;;;;;;;2.00;0.40;;;15.10;71.60;;;;;;5031795;28;20408;-48
2021/12/08 06:04:57;;;;;;;0.95;0.55;;;;;;;;;;5032187;28;20101;-50
2021/12/08 06:07:23;;;;;;;0.95;0.60;;;;;;;;;;5032058;28;20034;-50
2021/12/08 06:09:52;;;;;;;1.40;0.47;;;15.30;77.50;;;;;;5031968;28;20104;-50
2021/12/08 06:12:18;;;;;;;2.92;0.50;;;;;;;;;;5032000;28;20021;-51
2021/12/08 06:14:45;;;;;;;1.23;0.47;;;;;;;;;;5031773;28;20041;-46
2021/12/08 06:17:15;;;;;;;2.03;0.60;;;15.50;76.60;;;;;;5031742;28;20036;-46
2021/12/08 06:19:43;;;;;;;2.20;0.70;;;15.70;76.50;;;;;;5031991;28;20057;-46
2021/12/08 06:22:11;;;;;;;2.38;0.77;;;15.90;76.30;;;;;;5031985;28;20020;-46
2021/12/08 06:24:37;;;;;;;1.95;0.50;;;;;;;;;;5031589;28;20029;-46
2021/12/08 06:27:04;;;;;;;2.28;0.68;;;;;;;;;;5031590;28;20044;-45
2021/12/08 06:29:30;;;;;;;1.38;0.60;;;;;;;;;;5031773;28;20083;-48
2021/12/08 06:31:58;;;;;;;2.25;0.80;;;16.10;75.60;;;;;;5031826;28;20026;-46
2021/12/08 06:34:25;;;;;;;1.63;0.60;;;16.20;75.40;;;;;;5031742;28;20442;-46
2021/12/08 06:36:56;;;;;;;1.95;0.50;;;16.30;75.00;;;;;;5031393;28;20107;-46
2021/12/08 06:39:29;;;;;;;4.38;0.70;;;16.30;75.40;;;;;;5031529;28;20041;-47
2021/12/08 06:42:00;;;;;;;0.95;0.60;;;16.40;74.90;;;;;;5031814;28;20022;-46
2021/12/08 06:44:27;;;;;;;;;;;16.40;75.60;;;;;;5031727;28;20080;-48
2021/12/08 06:46:54;;;;;;;1.92;0.65;;;;;;;;;;5031809;28;19916;-52
2021/12/08 06:49:21;;;;;;;1.08;0.60;;;16.50;74.50;;;;;;5031413;28;20504;-47
2021/12/08 06:52:10;;;;;;;1.13;0.80;;;16.60;74.60;;;;;;5031307;28;20104;-46
2021/12/08 06:54:40;;;;;;;3.17;0.85;;;16.60;74.40;;;;;;5031455;28;20381;-46
2021/12/08 06:57:30;;;;;;;1.98;0.55;;;16.60;68.50;;;;;;5032271;28;20384;-47
2021/12/08 07:00:12;;;;;;;0.50;0.40;;;;;;;;;;5035152;28;20033;-46
2021/12/08 07:05:31;;;;;;;1.20;0.60;;;16.80;73.90;;;;;;5035591;28;20037;-51
2021/12/08 07:08:08;;;;;;;0.90;0.45;;;16.70;73.60;;;;;;5035045;28;20033;-56
2021/12/08 07:10:43;;;;;;;1.35;0.93;;;17.00;73.90;;;;;;5035055;28;20437;-57
2021/12/08 07:13:14;;;;;;;3.03;0.93;;;17.00;73.30;;;;;;5035032;28;20506;-55
2021/12/08 07:15:51;;;;;;;2.88;0.50;;;17.10;67.70;;;;;;5035267;28;20435;-56
2021/12/08 07:18:58;;;;;;;3.40;0.88;;;17.10;73.40;;;;;;5034923;28;20116;-56
2021/12/08 07:21:35;;;;;;;1.83;0.90;;;17.20;67.40;;;;;;4992851;28;20474;-56
2021/12/08 07:24:09;;;;;;;3.55;0.95;;;17.30;67.60;;;;;;5033818;28;20082;-56
2021/12/08 07:26:39;;;;;;;2.60;0.60;;;17.20;73.20;;;;;;5035233;28;20025;-56
2021/12/08 07:29:08;;;;;;;1.80;0.73;;;17.40;72.50;;;;;;5034791;28;20034;-53
2021/12/08 07:31:44;;;;;;;1.85;0.60;;;17.00;67.00;;;;;;5034987;28;20025;-54
2021/12/08 07:34:15;;;;;;;1.95;0.57;;;17.50;72.20;;;;;;5034952;28;20055;-55
2021/12/08 07:36:44;;;;;;;3.95;0.80;;;17.40;72.80;;;;;;5034927;28;20025;-53
2021/12/08 07:39:16;;;;;;;2.33;0.60;;;17.70;72.60;;;;;;5034421;28;20036;-53
2021/12/08 07:41:47;;;;;;;3.92;0.70;;;17.70;72.80;;;;;;5034736;28;20033;-54
2021/12/08 07:44:13;;;;;;;2.17;0.65;;;;;;;;;;5034759;28;20383;-52
2021/12/08 07:47:09;;;;;;;2.47;0.93;;;17.80;72.70;;;;;;5033039;28;20116;-51
2021/12/08 07:50:05;;;;;;;3.72;0.88;;;17.70;66.50;;;;;;5030241;28;20045;-54
2021/12/08 07:52:35;;;;;;;2.92;0.77;;;18.00;72.20;;;;;;5032740;28;20049;-54
2021/12/08 07:55:17;;;;;;;1.33;0.57;;;17.80;71.70;;;;;;5034449;28;20380;-54
2021/12/08 07:57:44;;;;;;;1.67;0.50;;;18.20;71.60;;;;;;5034182;28;20037;-55
2021/12/08 08:00:19;;;;;;;1.52;0.63;;;18.20;72.20;;;;;;5034152;28;20025;-55
2021/12/08 08:02:45;;;;;;;5.32;0.70;;;;;;;;;;5034279;28;20041;-52
2021/12/08 08:05:12;;;;;;;8.10;1.10;;;18.20;71.30;;;;;;5034204;28;20026;-52
2021/12/08 08:07:41;;;;;;;6.28;1.48;;;;;;;;;;5034008;28;20384;-52
2021/12/08 08:10:13;;;;;;;3.30;0.70;;;;;;;;;;5034355;28;20132;-51
2021/12/08 08:12:39;;;;;;;8.70;1.23;;;;;;;;;;5034295;28;20030;-51
2021/12/08 08:15:11;;;;;;;5.03;1.00;;;18.60;70.80;;;;;;5033917;28;20108;-48
2021/12/08 08:17:41;;;;;;;7.22;0.68;;;;;;;;;;5033895;28;20461;-52
2021/12/08 08:20:22;;;;;;;5.38;0.95;;;18.80;64.20;;;;;;5034136;28;20036;-48
2021/12/08 08:22:49;;;;;;;2.95;0.77;;;;;;;;;;5033727;28;20014;-51
2021/12/08 08:25:17;;;;;;;3.42;0.57;;;19.00;69.70;;;;;;5033945;28;20564;-51
2021/12/08 08:27:43;;;;;;;4.75;0.95;;;;;;;;;;5033615;28;20108;-49
2021/12/08 08:30:13;;;;;;;2.22;0.63;;;19.40;69.50;;;;;;5033466;28;20041;-48
2021/12/08 08:32:41;;;;;;;3.53;0.75;;;19.40;69.50;;;;;;5033721;28;20032;-52
2021/12/08 08:35:30;;;;;;;4.28;0.68;;;19.30;63.60;;;;;;5033510;28;20504;-50
2021/12/08 08:37:59;;;;;;;1.63;0.60;;;19.30;69.90;;;;;;5033770;28;20014;-51
2021/12/08 08:40:34;;;;;;;4.38;0.73;;;19.20;70.10;;;;;;5033451;28;20088;-48
2021/12/08 08:43:00;;;;;;;3.72;0.60;;;;;;;;;;5033430;28;20108;-49
2021/12/08 08:45:38;;;;;;;1.52;0.73;;;19.20;70.90;;;;;;5033655;28;20037;-49
2021/12/08 08:48:09;;;;;;;4.88;0.95;;;19.00;64.60;;;;;;5033504;28;20025;-47
2021/12/08 08:50:48;;;;;;;3.75;0.88;;;19.20;64.80;;;;;;5033454;28;20026;-49
2021/12/08 08:53:19;;;;;;;2.50;1.05;;;19.20;70.60;;;;;;5033477;28;20083;-48
2021/12/08 08:55:44;;;;;;;2.10;0.63;;;;;;;;;;5033185;28;20026;-49
2021/12/08 08:58:11;;;;;;;1.98;0.70;;;;;;;;;;5033359;28;20022;-50
2021/12/08 09:01:12;;;;;;;2.63;0.70;;;19.20;63.20;;;;;;5033003;28;20361;-48
2021/12/08 09:03:40;;;;;;;3.95;0.85;;;19.20;65.70;;;;;;5032890;28;20124;-50
2021/12/08 09:06:14;;;;;;;2.20;0.60;;;19.20;66.10;;;;;;5033029;28;20030;-49
2021/12/08 09:08:41;;;;;;;4.15;0.50;;;19.30;66.50;;;;;;5032643;28;20045;-49
2021/12/08 09:11:20;;;;;;;2.00;0.77;;;19.30;61.40;;;;;;5032799;28;20083;-50
2021/12/08 09:14:08;;;;;;;2.47;0.60;;;19.40;60.90;;;;;;5032759;28;20025;-50
2021/12/08 09:16:36;;;;;;;1.92;0.77;;;19.40;67.20;;;;;;5032913;28;20029;-51
2021/12/08 09:19:11;;;;;;;2.42;0.80;;;19.40;67.00;;;;;;5032849;28;20057;-49
2021/12/08 09:21:37;;;;;;;4.35;1.30;;;;;;;;;;5032542;28;20025;-50
2021/12/08 09:24:09;;;;;;;3.20;1.00;;;19.70;61.30;;;;;;5032645;28;20060;-50
2021/12/08 09:26:38;;;;;;;4.70;0.73;;;19.40;67.80;;;;;;5032573;28;20037;-50
2021/12/08 09:29:17;;;;;;;2.90;0.50;;;19.50;66.70;;;;;;5032546;28;20044;-49
2021/12/08 09:31:54;;;;;;;1.23;0.60;;;19.50;60.80;;;;;;5032675;28;20021;-50
2021/12/08 09:34:42;;;;;;;3.15;0.50;;;19.10;60.90;;;;;;5032503;28;20105;-50
2021/12/08 09:37:16;;;;;;;4.25;0.75;;;19.60;67.40;;;;;;5032672;28;20072;-50
2021/12/08 09:39:42;;;;;;;4.93;0.77;;;;;;;;;;5032419;28;20087;-53
2021/12/08 09:42:13;;;;;;;1.38;0.60;;;19.70;67.00;;;;;;5032496;28;20021;-51
2021/12/08 09:44:44;;;;;;;2.22;0.60;;;19.70;67.00;;;;;;5032164;28;20056;-50
2021/12/08 09:47:10;;;;;;;2.85;0.90;;;;;;;;;;5032482;28;20095;-50
2021/12/08 09:49:37;;;;;;;3.55;0.70;;;;;;;;;;5032130;28;20037;-50
2021/12/08 09:52:08;;;;;;;2.00;0.88;;;20.00;68.00;;;;;;5032165;28;20380;-52
2021/12/08 09:54:34;;;;;;;3.75;0.50;;;;;;;;;;5032273;28;20030;-50
2021/12/08 09:57:06;;;;;;;1.70;0.43;;;;;;;;;;5032183;28;20525;-51
2021/12/08 09:59:33;;;;;;;2.58;0.82;;;;;;;;;;5032285;28;20033;-49
2021/12/08 10:02:03;;;;;;;1.92;0.60;;;;;;;;;;5031849;28;20550;-49
2021/12/08 10:04:29;;;;;;;2.17;0.47;;;;;;;;;;5030827;28;20037;-50
2021/12/08 10:06:59;;;;;;;2.17;0.65;;;19.90;67.80;;;;;;5031959;28;20037;-52
2021/12/08 10:09:25;;;;;;;2.25;0.65;;;;;;;;;;5031973;28;20029;-52
2021/12/08 10:11:54;;;;;;;1.30;0.57;;;;;;;;;;5032052;28;20026;-52
2021/12/08 10:14:21;;;;;;;3.58;0.52;;;20.00;66.90;;;;;;5032197;28;20037;-50
2021/12/08 10:16:50;;;;;;;1.13;0.43;;;20.00;64.30;;;;;;5031967;28;20052;-51
2021/12/08 10:19:17;;;;;;;1.45;0.45;;;;;;;;;;5032176;28;20108;-50
2021/12/08 10:21:43;;;;;;;3.30;0.63;;;;;;;;;;5031885;28;20042;-49
2021/12/08 10:24:29;;;;;;;2.05;0.50;;;20.20;61.40;;;;;;5031887;28;20040;-50
2021/12/08 10:27:07;;;;;;;2.92;0.73;;;20.20;61.30;;;;;;5032082;28;20022;-51
2021/12/08 10:29:34;;;;;;;2.78;0.73;;;20.20;66.60;;;;;;5031771;28;20034;-50
2021/12/08 10:32:01;;;;;;;0.82;0.30;;;20.40;67.10;;;;;;5034245;28;20376;-50
2021/12/08 10:34:41;;;;;;;3.85;0.68;;;20.30;66.70;;;;;;5036021;28;20036;-52
2021/12/08 10:37:17;;;;;;;1.63;0.47;;;20.40;66.70;;;;;;5035971;28;20372;-50
2021/12/08 10:39:46;;;;;;;5.30;0.80;;;20.30;66.70;;;;;;5035938;28;20419;-48
2021/12/08 10:42:32;;;;;;;1.15;0.77;;;20.40;61.20;;;;;;5035660;28;20108;-50
2021/12/08 10:45:11;;;;;;;1.75;0.85;;;20.40;66.70;;;;;;5035616;28;20472;-50
2021/12/08 10:47:46;;;;;;;2.20;0.63;;;20.50;66.80;;;;;;5035782;28;20024;-51
2021/12/08 10:55:52;;;;;;;1.05;0.45;;;20.50;66.80;;;;;;5035629;28;20083;-49
2021/12/08 10:58:27;;;;;;;1.13;0.50;;;20.50;60.80;;;;;;5035614;28;20072;-51
2021/12/08 11:00:55;;;;;;;0.68;0.30;;;20.50;66.80;;;;;;5035507;28;20091;-53
2021/12/08 11:03:21;;;;;;;3.22;0.50;;;20.60;64.90;;;;;;5035047;28;20053;-50
2021/12/08 11:05:47;;;;;;;1.38;0.40;;;;;;;;;;5035256;28;20061;-51
2021/12/08 11:08:18;;;;;;;1.92;0.30;;;20.50;66.50;;;;;;5035250;28;20038;-52
2021/12/08 11:10:58;;;;;;;1.55;0.68;;;20.50;60.50;;;;;;5035472;28;20379;-48
2021/12/08 11:13:27;;;;;;;1.55;0.60;;;20.50;66.60;;;;;;5035391;28;20094;-49
2021/12/08 11:16:03;;;;;;;1.98;0.40;;;20.20;60.10;;;;;;5035026;28;20468;-50
2021/12/08 11:18:30;;;;;;;1.83;0.68;;;;;;;;;;5035033;28;20042;-49
2021/12/08 11:21:27;;;;;;;2.20;0.63;;;20.30;60.00;;;;;;5034962;28;20040;-49
2021/12/08 11:23:55;;;;;;;0.82;0.40;;;20.40;66.00;;;;;;5035045;28;20037;-49
2021/12/08 11:26:24;;;;;;;1.08;0.50;;;20.30;65.80;;;;;;5034722;28;20026;-53
2021/12/08 11:29:09;;;;;;;2.15;0.60;;;20.30;60.00;;;;;;5034515;28;20448;-50
2021/12/08 11:31:39;;;;;;;1.05;0.50;;;20.20;60.00;;;;;;5034792;28;20468;-52
2021/12/08 11:34:13;;;;;;;1.10;0.40;;;20.30;66.20;;;;;;5035005;28;20033;-50
2021/12/08 11:36:39;;;;;;;1.13;0.40;;;20.20;66.20;;;;;;5034754;28;20026;-51
2021/12/08 11:39:12;;;;;;;1.42;0.40;;;20.20;66.70;;;;;;5034469;28;20034;-49
2021/12/08 11:41:41;;;;;;;1.38;0.47;;;20.10;66.70;;;;;;5034433;28;20024;-52
2021/12/08 11:44:13;;;;;;;0.85;0.40;;;20.30;60.50;;;;;;5034019;28;20238;-50
2021/12/08 11:50:38;;;;;;;2.10;0.60;;;20.10;60.60;;;;;;5034394;28;20084;-49
2021/12/08 11:56:51;;;;;;;0.80;0.40;;;20.30;59.80;;;;;;5034301;28;20487;-51
2021/12/08 11:59:17;;;;;;;1.35;0.45;;;;;;;;;;5034186;28;20029;-47
2021/12/08 12:01:43;;;;;;;0.88;0.40;;;;;;;;;;5034257;28;20025;-49
2021/12/08 12:04:10;;;;;;;1.50;0.40;;;20.20;65.70;;;;;;5034276;28;20021;-51
2021/12/08 12:06:37;;;;;;;0.90;0.47;;;20.20;63.70;;;;;;5034172;28;20464;-50
2021/12/08 12:09:06;;;;;;;1.48;0.50;;;20.30;65.80;;;;;;5034314;28;20424;-50
2021/12/08 12:11:32;;;;;;;0.60;0.30;;;;;;;;;;5034159;28;20175;-50
2021/12/08 12:13:59;;;;;;;0.50;0.40;;;20.30;65.40;;;;;;5034284;28;20159;-49
2021/12/08 12:16:26;;;;;;;1.27;0.40;;;20.30;66.20;;;;;;5034669;28;20029;-49
2021/12/08 12:18:56;;;;;;;0.70;0.38;;;20.30;66.90;;;;;;5034342;28;20029;-50
2021/12/08 12:21:51;;;;;;;0.77;0.40;;;20.30;62.00;;;;;;5034424;28;20045;-50
2021/12/08 12:24:47;;;;;;;1.80;0.50;;;20.30;63.30;;;;;;5034469;28;20056;-51
2021/12/08 12:27:59;;;;;;;1.02;0.40;;;20.30;64.30;;;;;;5034162;28;20026;-52
2021/12/08 12:30:37;;;;;;;3.88;0.80;;;20.30;71.10;;;;;;4953550;29;20070;-49
2021/12/08 12:33:17;;;;;;;1.35;0.40;;;20.40;72.00;;;;;;4953655;29;20041;-49
2021/12/08 12:35:57;;;;;;;0.73;0.43;;;20.30;66.70;;;;;;5010490;28;20037;-49
2021/12/08 12:38:38;;;;;;;2.22;0.60;;;20.30;68.20;;;;;;5034012;28;20072;-49
2021/12/08 12:41:06;;;;;;;1.38;0.40;;;20.30;74.20;;;;;;5033964;28;20515;-50
2021/12/08 12:43:37;;;;;;;1.98;0.47;;;20.40;75.50;;;;;;5033798;28;20057;-50
2021/12/08 12:46:12;;;;;;;3.15;0.70;;;20.30;75.40;;;;;;5033789;28;20047;-49
2021/12/08 12:48:39;;;;;;;1.65;0.50;;;;;;;;;;5033368;28;20044;-51
2021/12/08 12:51:10;;;;;;;1.10;0.40;;;20.30;76.60;;;;;;5033282;28;20025;-48
2021/12/08 12:53:38;;;;;;;2.00;0.32;;;;;;;;;;5033335;28;20053;-50
2021/12/08 12:56:05;;;;;;;1.60;0.70;;;;;;;;;;5032268;28;20025;-51
2021/12/08 12:59:04;;;;;;;1.05;0.30;;;20.20;72.10;;;;;;5033527;28;20033;-50
2021/12/08 13:01:34;;;;;;;2.65;0.50;;;20.30;78.20;;;;;;5031428;28;20026;-50
2021/12/08 13:04:07;;;;;;;;;;;20.60;79.30;;;;;;5033758;28;20080;-54
2021/12/08 13:06:44;;;;;;;1.27;0.43;;;20.10;73.20;;;;;;5032622;28;20379;-48
2021/12/08 13:09:34;;;;;;;1.52;0.45;;;20.10;78.80;;;;;;5033146;28;20049;-50
2021/12/08 13:12:16;;;;;;;1.17;0.55;;;20.10;72.90;;;;;;5032841;28;20116;-49
2021/12/08 13:14:43;;;;;;;1.65;0.70;;;20.10;75.80;;;;;;5033201;28;20192;-49
2021/12/08 13:17:16;;;;;;;2.25;0.60;;;20.10;73.40;;;;;;5032811;28;20029;-51
2021/12/08 13:20:06;;;;;;;3.60;0.80;;;20.00;78.60;;;;;;5033007;28;20386;-51
2021/12/08 13:22:44;;;;;;;;;;;20.00;74.20;;;;;;5033260;28;20463;-50
2021/12/08 13:25:25;;;;;;;6.40;0.68;;;19.80;75.10;;;;;;5032681;28;19913;-51
2021/12/08 13:27:56;;;;;;;3.65;0.70;;;19.80;75.50;;;;;;5032928;28;20033;-50
2021/12/08 13:30:23;;;;;;;2.58;0.73;;;19.60;81.10;;;;;;5032895;28;20047;-51
2021/12/08 13:32:57;;;;;;;1.52;0.70;;;;;;;;;;5032602;28;20021;-52
2021/12/08 13:35:35;;;;;;;2.30;0.57;;;19.40;74.90;;;;;;5032802;28;20424;-50
2021/12/08 13:38:01;;;;;;;2.58;0.95;;;;;;;;;;5032815;28;20510;-53
2021/12/08 13:40:47;;;;;;;2.88;1.23;;;19.30;74.10;;;;;;5032532;28;20033;-50
2021/12/08 13:43:39;;;;;;;1.58;0.57;;;19.50;80.40;;;;;;5032616;28;20442;-53
2021/12/08 13:46:09;;;;;;;1.65;0.75;;;19.00;79.50;;;;;;5032657;28;20372;-50
2021/12/08 13:48:56;;;;;;;3.05;0.75;;;19.20;79.40;;;;;;5032614;28;20107;-50
2021/12/08 13:51:22;;;;;;;5.25;0.85;;;;;;;;;;5032267;28;20571;-53
2021/12/08 13:54:27;;;;;;;1.17;0.60;;;19.20;73.40;;;;;;5032307;28;20029;-47
2021/12/08 13:56:53;;;;;;;2.70;0.70;;;19.20;75.50;;;;;;5031690;28;20484;-47
2021/12/08 13:59:44;;;;;;;1.60;0.40;;;19.20;73.00;;;;;;5031654;28;20029;-49
2021/12/08 14:02:29;;;;;;;2.50;0.63;;;19.30;72.60;;;;;;5031638;28;20050;-50
2021/12/08 14:05:18;;;;;;;3.30;0.70;;;19.30;72.40;;;;;;5032406;28;20025;-49
2021/12/08 14:07:54;;;;;;;1.48;0.50;;;19.30;72.70;;;;;;5031993;28;20087;-50
2021/12/08 14:10:36;;;;;;;2.20;0.60;;;19.40;72.40;;;;;;5031929;28;20029;-51
2021/12/08 14:13:09;;;;;;;1.63;0.50;;;19.30;72.80;;;;;;5031604;28;20110;-49
2021/12/08 14:15:40;;;;;;;1.65;0.50;;;19.40;78.40;;;;;;5031976;28;20492;-49
2021/12/08 14:18:14;;;;;;;1.02;0.60;;;19.40;72.40;;;;;;5032033;28;20060;-48
2021/12/08 14:20:42;;;;;;;1.90;0.57;;;19.30;77.50;;;;;;5032064;28;20026;-49
2021/12/08 14:23:08;;;;;;;0.40;0.30;;;;;;;;;;5032189;28;20025;-49
2021/12/08 14:25:56;;;;;;;1.20;0.50;;;19.30;77.30;;;;;;5032233;28;20037;-49
2021/12/08 14:28:40;;;;;;;3.10;0.63;;;19.30;71.80;;;;;;5031978;28;20034;-48
2021/12/08 14:31:17;;;;;;;2.05;0.50;;;19.20;77.50;;;;;;5032261;28;20021;-48
2021/12/08 14:33:56;;;;;;;2.80;0.60;;;19.20;71.90;;;;;;5031901;28;20491;-48
2021/12/08 14:36:41;;;;;;;1.80;0.52;;;19.20;72.00;;;;;;5031775;28;20527;-50